Terminal Aerodrome Forecast
Issued by NWS Pocatello, ID

Home | Current Version | Previous Version | Text Only | Print | Product List | Glossary On
Versions: 1 2 3 4 5 6 7 8 9 10 11 12 13 14 15 16 17 18 19 20 21 22 23 24 25
000
FTUS45 KPIH 102339
TAFBYI
TAF
KBYI 102339Z 1100/1124 22010KT P6SM VCSH SCT025 OVC060
      TEMPO 1100/1104 4SM -RA BR BKN025 OVC060
     FM110400 26008KT P6SM VCSH SCT025 OVC060
     FM110600 27010KT P6SM SCT015
     FM110900 27015G25KT P6SM SCT008=

USA.gov is the U.S. government's official web portal to all federal, state and local government web resources and services.